sensor_id;sensor_type;location;lat;lon;timestamp;P1;durP1;ratioP1;P2;durP2;ratioP2
59189;SDS011;50749;51.636;4.948;2023-03-04T00:02:02;2.90;;;0.88;;
59189;SDS011;50749;51.636;4.948;2023-03-04T00:04:28;4.95;;;1.08;;
59189;SDS011;50749;51.636;4.948;2023-03-04T00:06:54;2.30;;;0.80;;
59189;SDS011;50749;51.636;4.948;2023-03-04T00:09:20;2.65;;;0.98;;
59189;SDS011;50749;51.636;4.948;2023-03-04T00:11:46;3.28;;;0.75;;
59189;SDS011;50749;51.636;4.948;2023-03-04T00:14:11;6.05;;;0.88;;
59189;SDS011;50749;51.636;4.948;2023-03-04T00:16:37;1.73;;;0.98;;
59189;SDS011;50749;51.636;4.948;2023-03-04T00:19:03;4.75;;;1.17;;
59189;SDS011;50749;51.636;4.948;2023-03-04T00:21:29;3.20;;;0.98;;
59189;SDS011;50749;51.636;4.948;2023-03-04T00:23:55;3.58;;;1.20;;
59189;SDS011;50749;51.636;4.948;2023-03-04T00:26:21;1.98;;;1.27;;
59189;SDS011;50749;51.636;4.948;2023-03-04T00:28:46;4.20;;;1.10;;
59189;SDS011;50749;51.636;4.948;2023-03-04T00:31:12;3.47;;;1.10;;
59189;SDS011;50749;51.636;4.948;2023-03-04T00:33:38;6.13;;;1.50;;
59189;SDS011;50749;51.636;4.948;2023-03-04T00:36:05;5.72;;;1.02;;
59189;SDS011;50749;51.636;4.948;2023-03-04T00:38:31;2.33;;;1.00;;
59189;SDS011;50749;51.636;4.948;2023-03-04T00:40:57;2.70;;;1.38;;
59189;SDS011;50749;51.636;4.948;2023-03-04T00:43:23;4.80;;;1.00;;
59189;SDS011;50749;51.636;4.948;2023-03-04T00:45:49;3.22;;;1.13;;
59189;SDS011;50749;51.636;4.948;2023-03-04T00:48:14;4.85;;;1.05;;
59189;SDS011;50749;51.636;4.948;2023-03-04T00:50:41;5.80;;;1.10;;
59189;SDS011;50749;51.636;4.948;2023-03-04T00:53:07;6.47;;;1.38;;
59189;SDS011;50749;51.636;4.948;2023-03-04T00:55:34;4.35;;;1.30;;
59189;SDS011;50749;51.636;4.948;2023-03-04T00:58:00;3.35;;;1.10;;
59189;SDS011;50749;51.636;4.948;2023-03-04T01:00:26;4.63;;;1.25;;
59189;SDS011;50749;51.636;4.948;2023-03-04T01:02:51;3.42;;;1.02;;
59189;SDS011;50749;51.636;4.948;2023-03-04T01:05:17;3.45;;;1.23;;
59189;SDS011;50749;51.636;4.948;2023-03-04T01:07:43;3.58;;;1.00;;
59189;SDS011;50749;51.636;4.948;2023-03-04T01:10:11;4.13;;;1.10;;
59189;SDS011;50749;51.636;4.948;2023-03-04T01:12:38;5.50;;;1.13;;
59189;SDS011;50749;51.636;4.948;2023-03-04T01:15:06;4.55;;;1.05;;
59189;SDS011;50749;51.636;4.948;2023-03-04T01:17:37;2.83;;;1.20;;
59189;SDS011;50749;51.636;4.948;2023-03-04T01:20:03;5.07;;;1.02;;
59189;SDS011;50749;51.636;4.948;2023-03-04T01:22:29;3.35;;;0.90;;
59189;SDS011;50749;51.636;4.948;2023-03-04T01:24:55;7.13;;;1.27;;
59189;SDS011;50749;51.636;4.948;2023-03-04T01:27:21;5.85;;;1.50;;
59189;SDS011;50749;51.636;4.948;2023-03-04T01:29:47;3.53;;;1.40;;
59189;SDS011;50749;51.636;4.948;2023-03-04T01:32:13;4.13;;;1.05;;
59189;SDS011;50749;51.636;4.948;2023-03-04T01:34:39;4.43;;;1.42;;
59189;SDS011;50749;51.636;4.948;2023-03-04T01:37:05;2.40;;;1.00;;
59189;SDS011;50749;51.636;4.948;2023-03-04T01:39:31;4.30;;;1.10;;
59189;SDS011;50749;51.636;4.948;2023-03-04T01:41:56;4.63;;;1.08;;
59189;SDS011;50749;51.636;4.948;2023-03-04T01:44:22;4.60;;;0.95;;
59189;SDS011;50749;51.636;4.948;2023-03-04T01:46:49;4.75;;;1.00;;
59189;SDS011;50749;51.636;4.948;2023-03-04T01:49:17;3.58;;;1.02;;
59189;SDS011;50749;51.636;4.948;2023-03-04T01:51:43;5.15;;;1.42;;
59189;SDS011;50749;51.636;4.948;2023-03-04T01:54:14;2.90;;;0.80;;
59189;SDS011;50749;51.636;4.948;2023-03-04T01:56:40;3.58;;;1.23;;
59189;SDS011;50749;51.636;4.948;2023-03-04T01:59:18;4.78;;;1.20;;
59189;SDS011;50749;51.636;4.948;2023-03-04T02:01:51;3.00;;;1.10;;
59189;SDS011;50749;51.636;4.948;2023-03-04T02:04:20;5.82;;;1.25;;
59189;SDS011;50749;51.636;4.948;2023-03-04T02:06:51;4.55;;;1.02;;
59189;SDS011;50749;51.636;4.948;2023-03-04T02:09:18;4.00;;;1.02;;
59189;SDS011;50749;51.636;4.948;2023-03-04T02:11:45;5.38;;;1.30;;
59189;SDS011;50749;51.636;4.948;2023-03-04T02:14:12;2.30;;;0.80;;
59189;SDS011;50749;51.636;4.948;2023-03-04T02:16:39;2.55;;;0.88;;
59189;SDS011;50749;51.636;4.948;2023-03-04T02:19:06;3.63;;;0.90;;
59189;SDS011;50749;51.636;4.948;2023-03-04T02:21:49;2.08;;;0.90;;
59189;SDS011;50749;51.636;4.948;2023-03-04T02:26:59;2.53;;;1.08;;
59189;SDS011;50749;51.636;4.948;2023-03-04T02:29:25;4.47;;;1.15;;
59189;SDS011;50749;51.636;4.948;2023-03-04T02:31:52;5.68;;;1.20;;
59189;SDS011;50749;51.636;4.948;2023-03-04T02:34:20;3.75;;;1.25;;
59189;SDS011;50749;51.636;4.948;2023-03-04T02:36:49;4.32;;;1.20;;
59189;SDS011;50749;51.636;4.948;2023-03-04T02:41:49;4.70;;;1.13;;
59189;SDS011;50749;51.636;4.948;2023-03-04T02:44:24;4.72;;;1.20;;
59189;SDS011;50749;51.636;4.948;2023-03-04T02:46:52;3.42;;;0.90;;
59189;SDS011;50749;51.636;4.948;2023-03-04T02:49:19;2.85;;;1.10;;
59189;SDS011;50749;51.636;4.948;2023-03-04T02:51:45;2.05;;;0.90;;
59189;SDS011;50749;51.636;4.948;2023-03-04T02:54:19;2.42;;;0.88;;
59189;SDS011;50749;51.636;4.948;2023-03-04T02:56:46;2.28;;;1.00;;
59189;SDS011;50749;51.636;4.948;2023-03-04T02:59:20;1.83;;;0.70;;
59189;SDS011;50749;51.636;4.948;2023-03-04T03:01:47;3.13;;;1.15;;
59189;SDS011;50749;51.636;4.948;2023-03-04T03:04:14;1.95;;;0.80;;
59189;SDS011;50749;51.636;4.948;2023-03-04T03:06:40;3.83;;;1.10;;
59189;SDS011;50749;51.636;4.948;2023-03-04T03:09:06;4.47;;;1.55;;
59189;SDS011;50749;51.636;4.948;2023-03-04T03:11:33;3.15;;;1.20;;
59189;SDS011;50749;51.636;4.948;2023-03-04T03:13:59;3.90;;;1.08;;
59189;SDS011;50749;51.636;4.948;2023-03-04T03:16:25;5.03;;;0.80;;
59189;SDS011;50749;51.636;4.948;2023-03-04T03:18:51;4.45;;;1.00;;
59189;SDS011;50749;51.636;4.948;2023-03-04T03:21:17;3.60;;;0.90;;
59189;SDS011;50749;51.636;4.948;2023-03-04T03:23:43;3.05;;;0.70;;
59189;SDS011;50749;51.636;4.948;2023-03-04T03:26:08;2.92;;;0.65;;
59189;SDS011;50749;51.636;4.948;2023-03-04T03:28:35;3.47;;;1.10;;
59189;SDS011;50749;51.636;4.948;2023-03-04T03:31:01;4.32;;;0.93;;
59189;SDS011;50749;51.636;4.948;2023-03-04T03:33:26;2.45;;;0.77;;
59189;SDS011;50749;51.636;4.948;2023-03-04T03:35:52;2.75;;;0.68;;
59189;SDS011;50749;51.636;4.948;2023-03-04T03:38:18;3.00;;;0.63;;
59189;SDS011;50749;51.636;4.948;2023-03-04T03:40:44;2.08;;;0.80;;
59189;SDS011;50749;51.636;4.948;2023-03-04T03:43:10;4.05;;;1.10;;
59189;SDS011;50749;51.636;4.948;2023-03-04T03:45:36;3.00;;;0.82;;
59189;SDS011;50749;51.636;4.948;2023-03-04T03:48:02;1.52;;;0.65;;
59189;SDS011;50749;51.636;4.948;2023-03-04T03:50:28;2.50;;;0.95;;
59189;SDS011;50749;51.636;4.948;2023-03-04T03:52:54;5.45;;;0.90;;
59189;SDS011;50749;51.636;4.948;2023-03-04T03:55:20;4.03;;;0.90;;
59189;SDS011;50749;51.636;4.948;2023-03-04T03:57:46;2.85;;;0.90;;
59189;SDS011;50749;51.636;4.948;2023-03-04T04:00:12;5.25;;;0.80;;
59189;SDS011;50749;51.636;4.948;2023-03-04T04:02:39;4.57;;;0.98;;
59189;SDS011;50749;51.636;4.948;2023-03-04T04:05:05;2.80;;;0.80;;
59189;SDS011;50749;51.636;4.948;2023-03-04T04:07:32;2.58;;;0.98;;
59189;SDS011;50749;51.636;4.948;2023-03-04T04:09:58;3.80;;;1.10;;
59189;SDS011;50749;51.636;4.948;2023-03-04T04:12:24;2.88;;;0.90;;
59189;SDS011;50749;51.636;4.948;2023-03-04T04:14:50;3.03;;;0.70;;
59189;SDS011;50749;51.636;4.948;2023-03-04T04:17:16;1.88;;;0.60;;
59189;SDS011;50749;51.636;4.948;2023-03-04T04:19:41;3.97;;;0.80;;
59189;SDS011;50749;51.636;4.948;2023-03-04T04:22:10;2.90;;;0.90;;
59189;SDS011;50749;51.636;4.948;2023-03-04T04:24:41;1.75;;;0.70;;
59189;SDS011;50749;51.636;4.948;2023-03-04T04:27:07;3.55;;;0.90;;
59189;SDS011;50749;51.636;4.948;2023-03-04T04:29:33;2.97;;;0.70;;
59189;SDS011;50749;51.636;4.948;2023-03-04T04:31:59;2.55;;;0.70;;
59189;SDS011;50749;51.636;4.948;2023-03-04T04:34:25;2.15;;;0.65;;
59189;SDS011;50749;51.636;4.948;2023-03-04T04:36:51;3.55;;;0.68;;
59189;SDS011;50749;51.636;4.948;2023-03-04T04:39:17;1.98;;;0.98;;
59189;SDS011;50749;51.636;4.948;2023-03-04T04:41:43;2.70;;;0.77;;
59189;SDS011;50749;51.636;4.948;2023-03-04T04:44:11;1.88;;;0.70;;
59189;SDS011;50749;51.636;4.948;2023-03-04T04:46:38;3.03;;;1.00;;
59189;SDS011;50749;51.636;4.948;2023-03-04T04:49:04;5.75;;;1.30;;
59189;SDS011;50749;51.636;4.948;2023-03-04T04:51:30;3.13;;;0.90;;
59189;SDS011;50749;51.636;4.948;2023-03-04T04:53:57;4.78;;;0.90;;
59189;SDS011;50749;51.636;4.948;2023-03-04T04:56:24;4.80;;;0.85;;
59189;SDS011;50749;51.636;4.948;2023-03-04T04:58:55;3.25;;;0.60;;
59189;SDS011;50749;51.636;4.948;2023-03-04T05:01:23;2.15;;;0.65;;
59189;SDS011;50749;51.636;4.948;2023-03-04T05:03:49;2.55;;;1.20;;
59189;SDS011;50749;51.636;4.948;2023-03-04T05:06:18;3.15;;;0.60;;
59189;SDS011;50749;51.636;4.948;2023-03-04T05:08:45;3.30;;;0.80;;
59189;SDS011;50749;51.636;4.948;2023-03-04T05:11:12;4.15;;;0.98;;
59189;SDS011;50749;51.636;4.948;2023-03-04T05:13:37;2.90;;;0.65;;
59189;SDS011;50749;51.636;4.948;2023-03-04T05:16:03;2.40;;;0.70;;
59189;SDS011;50749;51.636;4.948;2023-03-04T05:18:29;2.95;;;0.80;;
59189;SDS011;50749;51.636;4.948;2023-03-04T05:20:57;4.20;;;0.80;;
59189;SDS011;50749;51.636;4.948;2023-03-04T05:23:25;1.77;;;0.55;;
59189;SDS011;50749;51.636;4.948;2023-03-04T05:25:52;2.10;;;0.73;;
59189;SDS011;50749;51.636;4.948;2023-03-04T05:28:18;1.60;;;0.75;;
59189;SDS011;50749;51.636;4.948;2023-03-04T05:30:45;1.95;;;0.80;;
59189;SDS011;50749;51.636;4.948;2023-03-04T05:33:12;2.95;;;0.95;;
59189;SDS011;50749;51.636;4.948;2023-03-04T05:35:39;3.00;;;0.60;;
59189;SDS011;50749;51.636;4.948;2023-03-04T05:38:06;0.70;;;0.50;;
59189;SDS011;50749;51.636;4.948;2023-03-04T05:40:34;5.20;;;1.05;;
59189;SDS011;50749;51.636;4.948;2023-03-04T05:43:01;2.13;;;0.60;;
59189;SDS011;50749;51.636;4.948;2023-03-04T05:45:27;1.55;;;0.65;;
59189;SDS011;50749;51.636;4.948;2023-03-04T05:47:53;3.25;;;0.68;;
59189;SDS011;50749;51.636;4.948;2023-03-04T05:50:20;2.00;;;0.50;;
59189;SDS011;50749;51.636;4.948;2023-03-04T05:52:47;2.40;;;0.40;;
59189;SDS011;50749;51.636;4.948;2023-03-04T05:55:13;2.88;;;0.75;;
59189;SDS011;50749;51.636;4.948;2023-03-04T05:57:40;1.13;;;0.47;;
59189;SDS011;50749;51.636;4.948;2023-03-04T06:00:06;1.98;;;0.50;;
59189;SDS011;50749;51.636;4.948;2023-03-04T06:02:34;1.60;;;0.68;;
59189;SDS011;50749;51.636;4.948;2023-03-04T06:05:00;1.38;;;0.85;;
59189;SDS011;50749;51.636;4.948;2023-03-04T06:07:27;1.83;;;0.80;;
59189;SDS011;50749;51.636;4.948;2023-03-04T06:09:53;3.70;;;0.68;;
59189;SDS011;50749;51.636;4.948;2023-03-04T06:12:19;1.17;;;0.40;;
59189;SDS011;50749;51.636;4.948;2023-03-04T06:14:45;2.75;;;0.70;;
59189;SDS011;50749;51.636;4.948;2023-03-04T06:17:10;2.15;;;0.70;;
59189;SDS011;50749;51.636;4.948;2023-03-04T06:19:36;1.63;;;0.50;;
59189;SDS011;50749;51.636;4.948;2023-03-04T06:22:02;1.30;;;0.50;;
59189;SDS011;50749;51.636;4.948;2023-03-04T06:24:29;3.45;;;0.95;;
59189;SDS011;50749;51.636;4.948;2023-03-04T06:26:55;3.33;;;0.75;;
59189;SDS011;50749;51.636;4.948;2023-03-04T06:29:21;0.60;;;0.30;;
59189;SDS011;50749;51.636;4.948;2023-03-04T06:31:47;2.08;;;0.63;;
59189;SDS011;50749;51.636;4.948;2023-03-04T06:34:13;2.10;;;0.52;;
59189;SDS011;50749;51.636;4.948;2023-03-04T06:36:39;2.03;;;0.63;;
59189;SDS011;50749;51.636;4.948;2023-03-04T06:39:05;2.17;;;0.60;;
59189;SDS011;50749;51.636;4.948;2023-03-04T06:41:32;0.90;;;0.40;;
59189;SDS011;50749;51.636;4.948;2023-03-04T06:43:59;1.30;;;0.70;;
59189;SDS011;50749;51.636;4.948;2023-03-04T06:46:28;0.77;;;0.32;;
59189;SDS011;50749;51.636;4.948;2023-03-04T06:48:54;1.42;;;0.45;;
59189;SDS011;50749;51.636;4.948;2023-03-04T06:51:20;1.30;;;0.38;;
59189;SDS011;50749;51.636;4.948;2023-03-04T06:53:46;2.00;;;0.50;;
59189;SDS011;50749;51.636;4.948;2023-03-04T06:56:12;2.25;;;0.50;;
59189;SDS011;50749;51.636;4.948;2023-03-04T06:58:42;1.95;;;0.50;;
59189;SDS011;50749;51.636;4.948;2023-03-04T07:01:10;2.90;;;0.55;;
59189;SDS011;50749;51.636;4.948;2023-03-04T07:03:36;4.13;;;0.60;;
59189;SDS011;50749;51.636;4.948;2023-03-04T07:06:02;2.20;;;0.50;;
59189;SDS011;50749;51.636;4.948;2023-03-04T07:08:28;3.55;;;0.68;;
59189;SDS011;50749;51.636;4.948;2023-03-04T07:10:54;1.33;;;0.35;;
59189;SDS011;50749;51.636;4.948;2023-03-04T07:13:20;1.30;;;0.38;;
59189;SDS011;50749;51.636;4.948;2023-03-04T07:15:45;2.92;;;0.43;;
59189;SDS011;50749;51.636;4.948;2023-03-04T07:18:11;2.50;;;0.73;;
59189;SDS011;50749;51.636;4.948;2023-03-04T07:20:37;1.73;;;0.50;;
59189;SDS011;50749;51.636;4.948;2023-03-04T07:23:03;0.43;;;0.30;;
59189;SDS011;50749;51.636;4.948;2023-03-04T07:25:29;3.35;;;0.90;;
59189;SDS011;50749;51.636;4.948;2023-03-04T07:27:54;4.07;;;0.50;;
59189;SDS011;50749;51.636;4.948;2023-03-04T07:30:20;3.22;;;0.55;;
59189;SDS011;50749;51.636;4.948;2023-03-04T07:32:46;2.67;;;0.70;;
59189;SDS011;50749;51.636;4.948;2023-03-04T07:35:12;1.35;;;0.40;;
59189;SDS011;50749;51.636;4.948;2023-03-04T07:37:38;1.45;;;0.52;;
59189;SDS011;50749;51.636;4.948;2023-03-04T07:40:05;3.53;;;0.40;;
59189;SDS011;50749;51.636;4.948;2023-03-04T07:42:33;1.27;;;0.55;;
59189;SDS011;50749;51.636;4.948;2023-03-04T07:44:58;4.03;;;0.70;;
59189;SDS011;50749;51.636;4.948;2023-03-04T07:47:26;1.10;;;0.35;;
59189;SDS011;50749;51.636;4.948;2023-03-04T07:49:52;1.35;;;0.60;;
59189;SDS011;50749;51.636;4.948;2023-03-04T07:52:19;3.45;;;0.75;;
59189;SDS011;50749;51.636;4.948;2023-03-04T07:54:44;0.60;;;0.30;;
59189;SDS011;50749;51.636;4.948;2023-03-04T07:57:10;1.17;;;0.28;;
59189;SDS011;50749;51.636;4.948;2023-03-04T07:59:36;1.42;;;0.40;;
59189;SDS011;50749;51.636;4.948;2023-03-04T08:02:02;3.03;;;0.90;;
59189;SDS011;50749;51.636;4.948;2023-03-04T08:04:28;1.15;;;0.47;;
59189;SDS011;50749;51.636;4.948;2023-03-04T08:06:54;3.08;;;0.45;;
59189;SDS011;50749;51.636;4.948;2023-03-04T08:09:19;5.28;;;0.40;;
59189;SDS011;50749;51.636;4.948;2023-03-04T08:11:45;0.57;;;0.32;;
59189;SDS011;50749;51.636;4.948;2023-03-04T08:14:11;6.90;;;0.73;;
59189;SDS011;50749;51.636;4.948;2023-03-04T08:16:38;2.38;;;0.50;;
59189;SDS011;50749;51.636;4.948;2023-03-04T08:19:04;5.38;;;0.65;;
59189;SDS011;50749;51.636;4.948;2023-03-04T08:21:31;9.80;;;1.08;;
59189;SDS011;50749;51.636;4.948;2023-03-04T08:23:58;2.08;;;0.88;;
59189;SDS011;50749;51.636;4.948;2023-03-04T08:26:28;5.20;;;0.70;;
59189;SDS011;50749;51.636;4.948;2023-03-04T08:28:56;4.40;;;0.90;;
59189;SDS011;50749;51.636;4.948;2023-03-04T08:31:22;6.97;;;0.57;;
59189;SDS011;50749;51.636;4.948;2023-03-04T08:33:48;1.90;;;0.73;;
59189;SDS011;50749;51.636;4.948;2023-03-04T08:36:15;3.05;;;0.75;;
59189;SDS011;50749;51.636;4.948;2023-03-04T08:38:41;1.38;;;0.40;;
59189;SDS011;50749;51.636;4.948;2023-03-04T08:41:07;2.17;;;0.60;;
59189;SDS011;50749;51.636;4.948;2023-03-04T08:43:34;3.67;;;0.93;;
59189;SDS011;50749;51.636;4.948;2023-03-04T08:46:01;3.25;;;0.60;;
59189;SDS011;50749;51.636;4.948;2023-03-04T08:48:27;4.05;;;0.70;;
59189;SDS011;50749;51.636;4.948;2023-03-04T08:50:53;1.60;;;0.35;;
59189;SDS011;50749;51.636;4.948;2023-03-04T08:53:19;2.53;;;0.60;;
59189;SDS011;50749;51.636;4.948;2023-03-04T08:55:46;3.25;;;0.75;;
59189;SDS011;50749;51.636;4.948;2023-03-04T08:58:12;3.70;;;0.68;;
59189;SDS011;50749;51.636;4.948;2023-03-04T09:00:40;1.63;;;0.68;;
59189;SDS011;50749;51.636;4.948;2023-03-04T09:03:09;4.10;;;0.57;;
59189;SDS011;50749;51.636;4.948;2023-03-04T09:05:36;3.22;;;0.50;;
59189;SDS011;50749;51.636;4.948;2023-03-04T09:08:03;0.75;;;0.60;;
59189;SDS011;50749;51.636;4.948;2023-03-04T09:10:29;2.38;;;0.80;;
59189;SDS011;50749;51.636;4.948;2023-03-04T09:12:55;1.90;;;0.55;;
59189;SDS011;50749;51.636;4.948;2023-03-04T09:15:21;4.18;;;0.50;;
59189;SDS011;50749;51.636;4.948;2023-03-04T09:17:46;4.25;;;0.60;;
59189;SDS011;50749;51.636;4.948;2023-03-04T09:20:12;2.15;;;0.52;;
59189;SDS011;50749;51.636;4.948;2023-03-04T09:22:39;10.13;;;0.73;;
59189;SDS011;50749;51.636;4.948;2023-03-04T09:25:06;4.00;;;0.55;;
59189;SDS011;50749;51.636;4.948;2023-03-04T09:27:32;2.58;;;0.50;;
59189;SDS011;50749;51.636;4.948;2023-03-04T09:29:58;3.78;;;0.95;;
59189;SDS011;50749;51.636;4.948;2023-03-04T09:32:24;3.08;;;0.52;;
59189;SDS011;50749;51.636;4.948;2023-03-04T09:34:50;4.55;;;0.65;;
59189;SDS011;50749;51.636;4.948;2023-03-04T09:37:15;4.75;;;0.85;;
59189;SDS011;50749;51.636;4.948;2023-03-04T09:39:41;4.00;;;0.65;;
59189;SDS011;50749;51.636;4.948;2023-03-04T09:42:08;3.22;;;0.93;;
59189;SDS011;50749;51.636;4.948;2023-03-04T09:44:42;7.07;;;1.27;;
59189;SDS011;50749;51.636;4.948;2023-03-04T09:47:16;3.90;;;0.95;;
59189;SDS011;50749;51.636;4.948;2023-03-04T09:49:47;8.35;;;1.20;;
59189;SDS011;50749;51.636;4.948;2023-03-04T09:52:29;5.93;;;0.82;;
59189;SDS011;50749;51.636;4.948;2023-03-04T10:03:22;3.42;;;0.98;;
59189;SDS011;50749;51.636;4.948;2023-03-04T10:11:17;4.22;;;1.10;;
59189;SDS011;50749;51.636;4.948;2023-03-04T10:16:51;4.53;;;1.15;;
59189;SDS011;50749;51.636;4.948;2023-03-04T10:19:30;6.53;;;1.10;;
59189;SDS011;50749;51.636;4.948;2023-03-04T10:24:49;3.20;;;0.88;;
59189;SDS011;50749;51.636;4.948;2023-03-04T10:27:18;5.25;;;0.82;;
59189;SDS011;50749;51.636;4.948;2023-03-04T10:29:44;3.53;;;0.70;;
59189;SDS011;50749;51.636;4.948;2023-03-04T10:32:13;4.20;;;0.68;;
59189;SDS011;50749;51.636;4.948;2023-03-04T10:34:42;5.50;;;1.08;;
59189;SDS011;50749;51.636;4.948;2023-03-04T10:37:08;2.05;;;0.68;;
59189;SDS011;50749;51.636;4.948;2023-03-04T10:39:38;4.20;;;0.88;;
59189;SDS011;50749;51.636;4.948;2023-03-04T10:44:41;2.42;;;0.60;;
59189;SDS011;50749;51.636;4.948;2023-03-04T10:47:09;7.97;;;1.02;;
59189;SDS011;50749;51.636;4.948;2023-03-04T10:49:48;4.38;;;0.82;;
59189;SDS011;50749;51.636;4.948;2023-03-04T10:54:57;3.38;;;0.52;;
59189;SDS011;50749;51.636;4.948;2023-03-04T10:57:33;1.27;;;0.60;;
59189;SDS011;50749;51.636;4.948;2023-03-04T11:02:43;3.10;;;0.50;;
59189;SDS011;50749;51.636;4.948;2023-03-04T11:07:40;2.08;;;0.63;;
59189;SDS011;50749;51.636;4.948;2023-03-04T11:18:59;2.13;;;0.80;;
59189;SDS011;50749;51.636;4.948;2023-03-04T11:21:23;5.65;;;0.57;;
59189;SDS011;50749;51.636;4.948;2023-03-04T11:23:58;3.05;;;0.73;;
59189;SDS011;50749;51.636;4.948;2023-03-04T11:26:38;4.35;;;0.60;;
59189;SDS011;50749;51.636;4.948;2023-03-04T11:37:00;2.70;;;0.60;;
59189;SDS011;50749;51.636;4.948;2023-03-04T11:40:03;5.25;;;0.50;;
59189;SDS011;50749;51.636;4.948;2023-03-04T11:45:10;1.98;;;0.50;;
59189;SDS011;50749;51.636;4.948;2023-03-04T11:53:03;2.50;;;0.50;;
59189;SDS011;50749;51.636;4.948;2023-03-04T11:55:50;1.10;;;0.40;;
59189;SDS011;50749;51.636;4.948;2023-03-04T11:58:52;2.95;;;0.45;;
59189;SDS011;50749;51.636;4.948;2023-03-04T12:04:13;1.33;;;0.30;;
59189;SDS011;50749;51.636;4.948;2023-03-04T12:26:06;1.90;;;0.40;;
59189;SDS011;50749;51.636;4.948;2023-03-04T12:28:59;1.63;;;0.40;;
59189;SDS011;50749;51.636;4.948;2023-03-04T12:31:33;2.80;;;0.63;;
59189;SDS011;50749;51.636;4.948;2023-03-04T12:42:45;4.75;;;0.40;;
59189;SDS011;50749;51.636;4.948;2023-03-04T12:45:22;3.72;;;0.60;;
59189;SDS011;50749;51.636;4.948;2023-03-04T12:50:41;0.82;;;0.30;;
59189;SDS011;50749;51.636;4.948;2023-03-04T12:56:03;1.55;;;0.55;;
59189;SDS011;50749;51.636;4.948;2023-03-04T12:58:30;3.50;;;0.60;;
59189;SDS011;50749;51.636;4.948;2023-03-04T13:01:03;2.22;;;0.47;;
59189;SDS011;50749;51.636;4.948;2023-03-04T13:03:40;12.68;;;0.98;;
59189;SDS011;50749;51.636;4.948;2023-03-04T13:06:21;4.22;;;0.55;;
59189;SDS011;50749;51.636;4.948;2023-03-04T13:12:02;3.65;;;0.60;;
59189;SDS011;50749;51.636;4.948;2023-03-04T13:14:29;6.43;;;0.80;;
59189;SDS011;50749;51.636;4.948;2023-03-04T13:16:58;4.85;;;0.65;;
59189;SDS011;50749;51.636;4.948;2023-03-04T13:24:55;3.72;;;0.65;;
59189;SDS011;50749;51.636;4.948;2023-03-04T13:32:56;2.85;;;0.70;;
59189;SDS011;50749;51.636;4.948;2023-03-04T13:43:51;8.32;;;0.70;;
59189;SDS011;50749;51.636;4.948;2023-03-04T13:59:49;3.42;;;1.00;;
59189;SDS011;50749;51.636;4.948;2023-03-04T14:02:20;2.45;;;0.63;;
59189;SDS011;50749;51.636;4.948;2023-03-04T14:10:01;3.10;;;0.82;;
59189;SDS011;50749;51.636;4.948;2023-03-04T14:12:29;4.80;;;0.90;;
59189;SDS011;50749;51.636;4.948;2023-03-04T14:14:58;3.83;;;1.05;;
59189;SDS011;50749;51.636;4.948;2023-03-04T14:17:28;3.30;;;0.82;;
59189;SDS011;50749;51.636;4.948;2023-03-04T14:19:56;8.93;;;1.38;;
59189;SDS011;50749;51.636;4.948;2023-03-04T14:22:37;3.22;;;0.90;;
59189;SDS011;50749;51.636;4.948;2023-03-04T14:25:05;3.38;;;0.80;;
59189;SDS011;50749;51.636;4.948;2023-03-04T14:27:45;2.67;;;1.00;;
59189;SDS011;50749;51.636;4.948;2023-03-04T14:30:22;5.95;;;0.77;;
59189;SDS011;50749;51.636;4.948;2023-03-04T14:32:52;3.60;;;0.77;;
59189;SDS011;50749;51.636;4.948;2023-03-04T14:35:23;5.13;;;1.45;;
59189;SDS011;50749;51.636;4.948;2023-03-04T14:40:30;2.45;;;1.08;;
59189;SDS011;50749;51.636;4.948;2023-03-04T14:43:02;3.63;;;0.90;;
59189;SDS011;50749;51.636;4.948;2023-03-04T14:45:32;3.17;;;0.95;;
59189;SDS011;50749;51.636;4.948;2023-03-04T14:47:59;3.78;;;1.15;;
59189;SDS011;50749;51.636;4.948;2023-03-04T14:50:31;5.93;;;1.23;;
59189;SDS011;50749;51.636;4.948;2023-03-04T14:53:31;4.03;;;0.80;;
59189;SDS011;50749;51.636;4.948;2023-03-04T14:55:54;1.05;;;0.50;;
59189;SDS011;50749;51.636;4.948;2023-03-04T14:58:29;2.65;;;1.00;;
59189;SDS011;50749;51.636;4.948;2023-03-04T15:01:07;4.03;;;1.00;;
59189;SDS011;50749;51.636;4.948;2023-03-04T15:03:39;5.18;;;1.05;;
59189;SDS011;50749;51.636;4.948;2023-03-04T15:06:18;3.25;;;1.10;;
59189;SDS011;50749;51.636;4.948;2023-03-04T15:11:47;4.40;;;0.77;;
59189;SDS011;50749;51.636;4.948;2023-03-04T15:17:18;6.63;;;0.70;;
59189;SDS011;50749;51.636;4.948;2023-03-04T15:22:34;5.70;;;1.02;;
59189;SDS011;50749;51.636;4.948;2023-03-04T15:25:21;1.90;;;0.80;;
59189;SDS011;50749;51.636;4.948;2023-03-04T15:27:48;2.47;;;0.93;;
59189;SDS011;50749;51.636;4.948;2023-03-04T15:30:18;1.90;;;0.77;;
59189;SDS011;50749;51.636;4.948;2023-03-04T15:32:47;3.80;;;1.13;;
59189;SDS011;50749;51.636;4.948;2023-03-04T15:35:13;4.68;;;0.98;;
59189;SDS011;50749;51.636;4.948;2023-03-04T15:37:41;5.47;;;1.50;;
59189;SDS011;50749;51.636;4.948;2023-03-04T15:40:16;3.50;;;0.90;;
59189;SDS011;50749;51.636;4.948;2023-03-04T15:42:49;2.72;;;0.80;;
59189;SDS011;50749;51.636;4.948;2023-03-04T15:45:23;8.95;;;0.95;;
59189;SDS011;50749;51.636;4.948;2023-03-04T15:50:30;2.92;;;0.82;;
59189;SDS011;50749;51.636;4.948;2023-03-04T15:52:57;3.03;;;0.80;;
59189;SDS011;50749;51.636;4.948;2023-03-04T15:55:26;3.80;;;0.60;;
59189;SDS011;50749;51.636;4.948;2023-03-04T15:57:55;4.03;;;0.50;;
59189;SDS011;50749;51.636;4.948;2023-03-04T16:00:22;3.72;;;0.50;;
59189;SDS011;50749;51.636;4.948;2023-03-04T16:02:49;4.68;;;0.90;;
59189;SDS011;50749;51.636;4.948;2023-03-04T16:05:15;1.67;;;0.70;;
59189;SDS011;50749;51.636;4.948;2023-03-04T16:07:43;1.65;;;0.80;;
59189;SDS011;50749;51.636;4.948;2023-03-04T16:10:21;5.13;;;0.70;;
59189;SDS011;50749;51.636;4.948;2023-03-04T16:12:49;3.08;;;0.80;;
59189;SDS011;50749;51.636;4.948;2023-03-04T16:15:16;1.75;;;0.77;;
59189;SDS011;50749;51.636;4.948;2023-03-04T16:17:51;4.57;;;0.90;;
59189;SDS011;50749;51.636;4.948;2023-03-04T16:20:19;4.28;;;0.70;;
59189;SDS011;50749;51.636;4.948;2023-03-04T16:22:48;1.40;;;0.70;;
59189;SDS011;50749;51.636;4.948;2023-03-04T16:25:18;5.05;;;0.95;;
59189;SDS011;50749;51.636;4.948;2023-03-04T16:27:45;4.88;;;0.77;;
59189;SDS011;50749;51.636;4.948;2023-03-04T16:30:15;2.35;;;0.70;;
59189;SDS011;50749;51.636;4.948;2023-03-04T16:32:43;1.83;;;0.60;;
59189;SDS011;50749;51.636;4.948;2023-03-04T16:35:09;2.60;;;0.60;;
59189;SDS011;50749;51.636;4.948;2023-03-04T16:37:36;4.25;;;0.98;;
59189;SDS011;50749;51.636;4.948;2023-03-04T16:40:02;3.10;;;0.77;;
59189;SDS011;50749;51.636;4.948;2023-03-04T16:42:29;2.75;;;1.17;;
59189;SDS011;50749;51.636;4.948;2023-03-04T16:44:55;2.45;;;0.70;;
59189;SDS011;50749;51.636;4.948;2023-03-04T16:47:22;2.50;;;1.00;;
59189;SDS011;50749;51.636;4.948;2023-03-04T16:49:48;6.70;;;0.90;;
59189;SDS011;50749;51.636;4.948;2023-03-04T16:52:32;3.45;;;0.75;;
59189;SDS011;50749;51.636;4.948;2023-03-04T16:54:58;3.90;;;0.85;;
59189;SDS011;50749;51.636;4.948;2023-03-04T16:57:25;2.65;;;0.60;;
59189;SDS011;50749;51.636;4.948;2023-03-04T16:59:53;1.92;;;0.70;;
59189;SDS011;50749;51.636;4.948;2023-03-04T17:02:20;2.30;;;0.68;;
59189;SDS011;50749;51.636;4.948;2023-03-04T17:04:48;3.35;;;0.80;;
59189;SDS011;50749;51.636;4.948;2023-03-04T17:07:15;3.05;;;1.00;;
59189;SDS011;50749;51.636;4.948;2023-03-04T17:09:41;2.67;;;0.55;;
59189;SDS011;50749;51.636;4.948;2023-03-04T17:12:08;1.92;;;0.73;;
59189;SDS011;50749;51.636;4.948;2023-03-04T17:14:35;4.15;;;0.75;;
59189;SDS011;50749;51.636;4.948;2023-03-04T17:17:03;3.60;;;1.00;;
59189;SDS011;50749;51.636;4.948;2023-03-04T17:19:31;3.15;;;1.13;;
59189;SDS011;50749;51.636;4.948;2023-03-04T17:22:00;6.55;;;1.77;;
59189;SDS011;50749;51.636;4.948;2023-03-04T17:24:27;9.55;;;1.95;;
59189;SDS011;50749;51.636;4.948;2023-03-04T17:26:53;7.60;;;1.80;;